createdAt,value
2023-02-12T00:01:35.065Z,20.20
2023-02-12T00:04:03.750Z,19.90
2023-02-12T00:06:32.124Z,21.60
2023-02-12T00:09:00.847Z,16.00
2023-02-12T00:11:30.090Z,21.90
2023-02-12T00:13:59.266Z,20.60
2023-02-12T00:16:29.328Z,20.60
2023-02-12T00:18:58.885Z,20.80
2023-02-12T00:21:27.862Z,21.50
2023-02-12T00:23:57.124Z,19.20
2023-02-12T00:26:25.663Z,19.80
2023-02-12T00:28:55.412Z,20.60
2023-02-12T00:31:29.789Z,21.10
2023-02-12T00:34:00.033Z,20.10
2023-02-12T00:36:31.373Z,19.60
2023-02-12T00:39:00.359Z,20.30
2023-02-12T00:41:29.366Z,19.20
2023-02-12T00:43:58.133Z,20.10
2023-02-12T00:46:26.509Z,20.20
2023-02-12T00:48:54.880Z,21.40
2023-02-12T00:51:23.335Z,19.90
2023-02-12T00:53:51.756Z,19.60
2023-02-12T00:56:20.081Z,21.30
2023-02-12T00:58:48.416Z,20.20
2023-02-12T01:01:17.140Z,19.50
2023-02-12T01:03:45.418Z,19.10
2023-02-12T01:06:13.832Z,19.60
2023-02-12T01:08:42.175Z,19.00
2023-02-12T01:11:13.778Z,20.30
2023-02-12T01:13:42.200Z,19.50
2023-02-12T01:16:24.056Z,19.90
2023-02-12T01:18:55.925Z,20.20
2023-02-12T01:21:29.078Z,18.70
2023-02-12T01:23:58.394Z,19.60
2023-02-12T01:26:29.214Z,18.90
2023-02-12T01:29:01.618Z,17.80
2023-02-12T01:31:34.608Z,19.40
2023-02-12T01:34:04.290Z,18.10
2023-02-12T01:36:32.671Z,18.50
2023-02-12T01:39:03.041Z,19.70
2023-02-12T01:41:39.974Z,19.30
2023-02-12T01:44:22.026Z,17.70
2023-02-12T01:47:05.725Z,19.30
2023-02-12T01:49:40.445Z,21.00
2023-02-12T01:52:27.465Z,21.40
2023-02-12T01:55:00.507Z,19.10
2023-02-12T01:57:33.284Z,18.40
2023-02-12T02:00:07.469Z,18.90
2023-02-12T02:02:39.190Z,17.90
2023-02-12T02:05:08.024Z,19.10
2023-02-12T02:07:36.384Z,20.60
2023-02-12T02:10:05.599Z,20.40
2023-02-12T02:12:53.822Z,19.10
2023-02-12T02:15:22.261Z,18.60
2023-02-12T02:18:01.099Z,18.00
2023-02-12T02:20:58.226Z,16.10
2023-02-12T02:24:06.003Z,15.90
2023-02-12T02:26:50.337Z,18.20
2023-02-12T02:30:08.958Z,17.30
2023-02-12T02:32:46.337Z,17.60
2023-02-12T02:35:26.519Z,18.80
2023-02-12T02:38:06.118Z,17.60
2023-02-12T02:40:53.493Z,18.80
2023-02-12T02:43:30.750Z,18.50
2023-02-12T02:46:12.124Z,18.70
2023-02-12T02:48:48.078Z,17.30
2023-02-12T02:51:24.992Z,18.30
2023-02-12T02:54:07.720Z,16.60
2023-02-12T02:56:43.408Z,16.40
2023-02-12T02:59:18.888Z,16.90
2023-02-12T03:02:04.111Z,18.70
2023-02-12T03:04:41.497Z,16.80
2023-02-12T03:07:26.890Z,17.30
2023-02-12T03:10:27.297Z,17.50
2023-02-12T03:13:09.752Z,16.50
2023-02-12T03:15:46.507Z,16.70
2023-02-12T03:18:25.545Z,14.80
2023-02-12T03:21:13.670Z,15.80
2023-02-12T03:23:59.053Z,12.10
2023-02-12T03:26:46.799Z,15.50
2023-02-12T03:29:15.200Z,15.70
2023-02-12T03:32:06.296Z,16.30
2023-02-12T03:35:06.883Z,16.50
2023-02-12T03:37:56.794Z,16.30
2023-02-12T03:40:39.870Z,12.40
2023-02-12T03:43:25.785Z,14.70
2023-02-12T03:46:05.981Z,11.30
2023-02-12T03:49:08.230Z,13.10
2023-02-12T03:51:40.642Z,12.20
2023-02-12T03:54:12.765Z,12.40
2023-02-12T03:56:52.167Z,12.50
2023-02-12T03:59:23.066Z,13.20
2023-02-12T04:01:57.605Z,15.90
2023-02-12T04:04:27.095Z,14.10
2023-02-12T04:06:56.157Z,14.20
2023-02-12T04:09:27.839Z,13.80
2023-02-12T04:12:30.021Z,12.00
2023-02-12T04:15:18.678Z,12.80
2023-02-12T04:18:19.245Z,12.10
2023-02-12T04:21:31.845Z,11.40
2023-02-12T04:24:17.283Z,13.80
2023-02-12T04:26:55.422Z,11.90
2023-02-12T04:29:50.637Z,13.30
2023-02-12T04:32:31.746Z,14.50
2023-02-12T04:35:17.943Z,14.40
2023-02-12T04:37:55.359Z,13.50
2023-02-12T04:40:24.390Z,15.80
2023-02-12T04:42:53.763Z,15.70
2023-02-12T04:45:28.002Z,12.00
2023-02-12T04:47:57.434Z,13.00
2023-02-12T04:50:26.970Z,11.20
2023-02-12T04:52:55.334Z,11.90
2023-02-12T04:55:23.664Z,12.30
2023-02-12T04:57:52.032Z,14.00
2023-02-12T05:00:20.752Z,13.30
2023-02-12T05:02:49.449Z,10.30
2023-02-12T05:05:18.477Z,11.20
2023-02-12T05:07:46.814Z,9.90
2023-02-12T05:10:15.550Z,11.00
2023-02-12T05:12:43.896Z,12.20
2023-02-12T05:15:12.235Z,11.80
2023-02-12T05:17:40.634Z,12.70
2023-02-12T05:20:10.557Z,11.00
2023-02-12T05:22:42.069Z,13.10
2023-02-12T05:25:11.701Z,13.20
2023-02-12T05:27:40.078Z,13.70
2023-02-12T05:30:09.608Z,12.70
2023-02-12T05:32:37.995Z,11.00
2023-02-12T05:35:07.291Z,12.70
2023-02-12T05:37:36.783Z,14.30
2023-02-12T05:40:06.811Z,11.60
2023-02-12T05:42:35.219Z,13.80
2023-02-12T05:45:03.922Z,12.90
2023-02-12T05:47:32.314Z,13.60
2023-02-12T05:50:01.119Z,12.90
2023-02-12T05:52:29.506Z,11.60
2023-02-12T05:54:57.842Z,13.40
2023-02-12T05:57:26.189Z,14.80
2023-02-12T05:59:54.646Z,13.20
2023-02-12T06:02:23.008Z,13.50
2023-02-12T06:04:51.500Z,13.80
2023-02-12T06:07:19.891Z,12.20
2023-02-12T06:09:48.246Z,13.20
2023-02-12T06:12:16.716Z,13.30
2023-02-12T06:14:45.083Z,10.90
2023-02-12T06:17:13.686Z,12.40
2023-02-12T06:19:41.997Z,12.00
2023-02-12T06:22:10.318Z,14.10
2023-02-12T06:24:38.634Z,12.80
2023-02-12T06:27:06.979Z,12.50
2023-02-12T06:29:35.300Z,11.70
2023-02-12T06:32:03.887Z,11.80
2023-02-12T06:34:32.376Z,11.80
2023-02-12T06:37:00.810Z,11.20
2023-02-12T06:39:29.125Z,12.50
2023-02-12T06:41:57.649Z,13.10
2023-02-12T06:44:25.943Z,12.90
2023-02-12T06:46:54.335Z,11.20
2023-02-12T06:49:22.672Z,13.70
2023-02-12T06:51:50.965Z,11.20
2023-02-12T06:54:19.389Z,13.90
2023-02-12T06:56:47.783Z,12.60
2023-02-12T06:59:17.173Z,14.40
2023-02-12T07:01:45.579Z,13.90
2023-02-12T07:04:14.273Z,12.60
2023-02-12T07:06:44.874Z,15.40
2023-02-12T07:09:17.287Z,16.60
2023-02-12T07:11:49.662Z,16.20
2023-02-12T07:14:18.718Z,13.80
2023-02-12T07:16:49.708Z,13.50
2023-02-12T07:19:18.327Z,14.60
2023-02-12T07:21:48.062Z,18.80
2023-02-12T07:24:21.087Z,36.80
2023-02-12T07:26:54.380Z,47.30
2023-02-12T07:29:22.686Z,60.80
2023-02-12T07:31:53.327Z,52.50
2023-02-12T07:34:23.051Z,36.00
2023-02-12T07:36:51.370Z,25.20
2023-02-12T07:39:19.821Z,17.30
2023-02-12T07:41:51.964Z,14.20
2023-02-12T07:44:21.425Z,12.80
2023-02-12T07:46:50.871Z,12.50
2023-02-12T07:49:22.320Z,12.20
2023-02-12T07:51:50.786Z,14.20
2023-02-12T07:54:21.967Z,13.40
2023-02-12T07:56:50.984Z,13.70
2023-02-12T07:59:22.713Z,11.90
2023-02-12T08:01:54.866Z,13.90
2023-02-12T08:04:27.066Z,13.10
2023-02-12T08:07:07.113Z,15.20
2023-02-12T08:09:35.466Z,13.70
2023-02-12T08:12:12.327Z,13.20
2023-02-12T08:14:42.171Z,14.50
2023-02-12T08:17:11.464Z,16.20
2023-02-12T08:19:39.847Z,14.80
2023-02-12T08:22:08.253Z,15.00
2023-02-12T08:24:36.606Z,12.90
2023-02-12T08:27:05.554Z,14.80
2023-02-12T08:29:33.901Z,12.30
2023-02-12T08:32:03.935Z,14.30
2023-02-12T08:34:35.424Z,12.40
2023-02-12T08:37:06.781Z,13.40
2023-02-12T08:39:35.292Z,19.20
2023-02-12T08:42:03.916Z,14.40
2023-02-12T08:44:33.802Z,13.50
2023-02-12T08:47:02.264Z,15.80
2023-02-12T08:49:30.915Z,11.80
2023-02-12T08:52:01.724Z,13.00
2023-02-12T08:54:32.325Z,14.40
2023-02-12T08:57:03.295Z,14.70
2023-02-12T08:59:31.927Z,13.40
2023-02-12T09:02:01.129Z,13.80
2023-02-12T09:04:29.949Z,17.20
2023-02-12T09:06:58.455Z,16.40
2023-02-12T09:09:27.381Z,19.70
2023-02-12T09:11:56.071Z,16.00
2023-02-12T09:14:25.142Z,16.50
2023-02-12T09:16:54.683Z,14.00
2023-02-12T09:19:23.465Z,13.40
2023-02-12T09:21:57.054Z,15.10
2023-02-12T09:24:27.741Z,13.40
2023-02-12T09:26:56.882Z,12.50
2023-02-12T09:29:25.392Z,13.80
2023-02-12T09:31:54.098Z,12.40
2023-02-12T09:34:22.728Z,12.50
2023-02-12T09:36:51.120Z,12.90
2023-02-12T09:39:19.534Z,13.80
2023-02-12T09:42:12.384Z,13.30
2023-02-12T09:44:50.055Z,10.70
2023-02-12T09:47:40.726Z,12.80
2023-02-12T09:50:39.061Z,12.60
2023-02-12T09:53:14.788Z,12.70
2023-02-12T09:55:43.194Z,12.20
2023-02-12T10:05:01.124Z,10.10
2023-02-12T10:08:03.667Z,11.20
2023-02-12T10:11:06.182Z,10.00
2023-02-12T10:14:16.068Z,9.90
2023-02-12T10:16:54.403Z,10.00
2023-02-12T10:19:52.807Z,20.70
2023-02-12T10:23:03.371Z,17.00
2023-02-12T10:25:54.494Z,12.30
2023-02-12T10:28:38.394Z,12.10
2023-02-12T10:34:27.066Z,12.60
2023-02-12T10:37:05.931Z,11.30
2023-02-12T10:42:46.196Z,15.20
2023-02-12T10:45:19.102Z,14.20
2023-02-12T10:47:51.844Z,12.20
2023-02-12T10:50:37.652Z,11.00
2023-02-12T10:53:06.098Z,11.10
2023-02-12T10:55:39.344Z,11.00
2023-02-12T10:58:25.334Z,11.20
2023-02-12T11:01:03.035Z,10.60
2023-02-12T11:03:34.464Z,11.50
2023-02-12T11:06:19.712Z,9.70
2023-02-12T11:08:49.037Z,10.70
2023-02-12T11:11:28.238Z,11.80
2023-02-12T11:14:04.180Z,10.20
2023-02-12T11:16:51.109Z,12.60
2023-02-12T11:19:29.499Z,10.20
2023-02-12T11:22:14.586Z,8.70
2023-02-12T11:24:43.039Z,9.80
2023-02-12T11:27:25.261Z,10.30
2023-02-12T11:30:21.788Z,11.50
2023-02-12T11:32:51.694Z,9.90
2023-02-12T11:35:25.911Z,11.00
2023-02-12T11:37:58.368Z,10.60
2023-02-12T11:40:31.371Z,9.40
2023-02-12T11:43:06.044Z,11.70
2023-02-12T11:45:44.853Z,10.60
2023-02-12T11:48:34.779Z,7.50
2023-02-12T11:51:09.220Z,8.80
2023-02-12T11:53:49.839Z,8.10
2023-02-12T11:56:18.425Z,7.60
2023-02-12T11:58:49.290Z,7.40
2023-02-12T12:01:31.248Z,8.60
2023-02-12T12:04:13.927Z,8.90
2023-02-12T12:07:11.780Z,7.20
2023-02-12T12:09:51.646Z,7.90
2023-02-12T12:12:45.832Z,7.60
2023-02-12T12:15:54.021Z,8.20
2023-02-12T12:18:57.536Z,7.90
2023-02-12T12:21:40.102Z,7.50
2023-02-12T12:24:44.396Z,7.90
2023-02-12T12:27:43.480Z,7.20
2023-02-12T12:30:36.683Z,6.90
2023-02-12T12:33:16.524Z,7.30
2023-02-12T12:36:01.592Z,6.90
2023-02-12T12:39:04.444Z,6.40
2023-02-12T12:42:01.001Z,6.20
2023-02-12T12:44:59.007Z,6.10
2023-02-12T12:47:32.510Z,5.30
2023-02-12T12:50:23.802Z,5.80
2023-02-12T12:53:19.881Z,9.60
2023-02-12T12:58:45.369Z,10.90
2023-02-12T13:01:48.901Z,7.80
2023-02-12T13:04:29.324Z,12.40
2023-02-12T13:07:52.247Z,7.80
2023-02-12T13:10:51.006Z,8.40
2023-02-12T13:13:26.461Z,5.80
2023-02-12T13:16:25.938Z,6.20
2023-02-12T13:19:32.423Z,6.70
2023-02-12T13:22:22.276Z,7.30
2023-02-12T13:25:31.773Z,6.70
2023-02-12T13:28:03.054Z,6.60
2023-02-12T13:30:45.248Z,5.60
2023-02-12T13:33:42.616Z,5.90
2023-02-12T13:36:14.783Z,5.60
2023-02-12T13:38:59.670Z,6.00
2023-02-12T13:41:29.795Z,6.00
2023-02-12T13:44:14.551Z,5.60
2023-02-12T13:47:01.504Z,6.40
2023-02-12T13:49:48.076Z,7.40
2023-02-12T13:52:48.601Z,7.60
2023-02-12T13:55:48.486Z,6.00
2023-02-12T13:58:35.092Z,6.40
2023-02-12T14:01:37.542Z,5.50
2023-02-12T14:04:33.097Z,5.70
2023-02-12T14:07:06.710Z,9.00
2023-02-12T14:09:46.675Z,7.40
2023-02-12T14:12:43.046Z,5.80
2023-02-12T14:15:29.798Z,6.00
2023-02-12T14:18:27.558Z,8.00
2023-02-12T14:21:11.130Z,8.30
2023-02-12T14:23:42.271Z,7.70
2023-02-12T14:26:20.260Z,14.80
2023-02-12T14:29:06.811Z,12.70
2023-02-12T14:31:38.198Z,7.60
2023-02-12T14:34:06.803Z,8.50
2023-02-12T14:36:39.245Z,7.40
2023-02-12T14:39:20.155Z,6.80
2023-02-12T14:42:11.748Z,6.30
2023-02-12T14:45:31.850Z,6.40
2023-02-12T14:48:00.911Z,5.60
2023-02-12T14:50:39.907Z,4.40
2023-02-12T14:53:35.177Z,5.50
2023-02-12T14:56:05.427Z,6.20
2023-02-12T14:58:36.422Z,5.60
2023-02-12T15:01:06.817Z,4.60
2023-02-12T15:03:59.122Z,4.50
2023-02-12T15:06:43.078Z,4.40
2023-02-12T15:09:37.587Z,4.40
2023-02-12T15:12:19.598Z,4.40
2023-02-12T15:15:19.617Z,7.00
2023-02-12T15:18:00.271Z,7.60
2023-02-12T15:20:50.740Z,6.70
2023-02-12T15:23:44.388Z,4.70
2023-02-12T15:26:22.960Z,4.60
2023-02-12T15:28:55.984Z,5.00
2023-02-12T15:31:31.397Z,4.50
2023-02-12T15:34:07.347Z,5.20
2023-02-12T15:36:38.220Z,6.50
2023-02-12T15:39:09.258Z,6.50
2023-02-12T15:41:40.445Z,6.80
2023-02-12T15:44:27.979Z,21.00
2023-02-12T15:47:17.590Z,8.10
2023-02-12T15:49:54.605Z,6.80
2023-02-12T15:52:34.831Z,8.70
2023-02-12T15:55:06.158Z,9.90
2023-02-12T15:57:35.720Z,8.80
2023-02-12T16:00:15.127Z,13.80
2023-02-12T16:02:43.636Z,28.80
2023-02-12T16:05:15.632Z,28.80
2023-02-12T16:07:46.694Z,19.50
2023-02-12T16:10:21.058Z,13.90
2023-02-12T16:12:55.994Z,11.70
2023-02-12T16:15:36.943Z,11.30
2023-02-12T16:18:07.299Z,8.10
2023-02-12T16:20:39.561Z,11.50
2023-02-12T16:23:10.820Z,14.70
2023-02-12T16:25:41.798Z,11.00
2023-02-12T16:28:30.610Z,16.40
2023-02-12T16:31:15.701Z,14.30
2023-02-12T16:33:53.130Z,12.50
2023-02-12T16:36:24.508Z,22.10
2023-02-12T16:38:55.123Z,17.50
2023-02-12T16:41:32.554Z,14.70
2023-02-12T16:44:00.964Z,13.60
2023-02-12T16:46:50.817Z,12.40
2023-02-12T16:49:25.982Z,13.60
2023-02-12T16:52:28.334Z,12.40
2023-02-12T16:55:00.751Z,11.30
2023-02-12T16:57:29.208Z,12.00
2023-02-12T16:59:57.790Z,14.30
2023-02-12T17:02:26.562Z,13.60
2023-02-12T17:04:56.807Z,14.50
2023-02-12T17:07:29.144Z,15.90
2023-02-12T17:10:02.646Z,16.10
2023-02-12T17:12:31.201Z,18.90
2023-02-12T17:15:05.033Z,23.10
2023-02-12T17:28:01.702Z,22.20
2023-02-12T17:30:38.103Z,21.80
2023-02-12T17:36:33.771Z,17.70
2023-02-12T17:39:06.572Z,17.70
2023-02-12T17:41:41.512Z,18.20
2023-02-12T17:44:15.579Z,17.80
2023-02-12T17:57:33.778Z,17.90
2023-02-12T18:00:07.041Z,19.70
2023-02-12T18:02:36.036Z,30.50
2023-02-12T18:05:04.978Z,39.20
2023-02-12T18:07:35.771Z,22.80
2023-02-12T18:10:24.297Z,21.50
2023-02-12T18:12:58.000Z,23.80
2023-02-12T18:15:36.690Z,25.30
2023-02-12T18:18:10.020Z,21.50
2023-02-12T18:20:50.327Z,17.50
2023-02-12T18:23:49.740Z,19.90
2023-02-12T18:26:24.334Z,18.70
2023-02-12T18:29:01.302Z,17.40
2023-02-12T18:31:36.153Z,19.80
2023-02-12T18:34:33.988Z,18.60
2023-02-12T18:37:09.821Z,19.60
2023-02-12T18:39:46.796Z,21.30
2023-02-12T18:42:40.927Z,21.70
2023-02-12T18:45:16.769Z,26.20
2023-02-12T18:47:55.843Z,25.60
2023-02-12T18:50:30.355Z,31.10
2023-02-12T18:53:01.027Z,35.00
2023-02-12T18:55:48.555Z,35.30
2023-02-12T18:58:18.624Z,31.30
2023-02-12T19:00:56.968Z,29.40
2023-02-12T19:03:27.541Z,28.00
2023-02-12T19:06:04.455Z,20.30
2023-02-12T19:08:33.530Z,20.50
2023-02-12T19:11:07.550Z,21.60
2023-02-12T19:13:36.958Z,22.50
2023-02-12T19:16:27.845Z,22.80
2023-02-12T19:19:02.977Z,23.50
2023-02-12T19:21:36.597Z,25.20
2023-02-12T19:24:08.452Z,21.20
2023-02-12T19:26:37.521Z,22.20
2023-02-12T19:29:11.680Z,25.00
2023-02-12T19:31:49.928Z,25.60
2023-02-12T19:34:41.936Z,23.80
2023-02-12T19:37:28.431Z,21.60
2023-02-12T19:40:03.632Z,21.20
2023-02-12T19:45:17.195Z,23.70
2023-02-12T19:47:53.226Z,27.90
2023-02-12T19:50:26.849Z,26.00
2023-02-12T19:52:56.437Z,28.80
2023-02-12T19:55:25.257Z,32.70
2023-02-12T19:57:54.507Z,28.50
2023-02-12T20:00:29.147Z,26.70
2023-02-12T20:03:06.782Z,21.00
2023-02-12T20:05:51.550Z,18.70
2023-02-12T20:08:25.161Z,15.80
2023-02-12T20:10:58.620Z,18.40
2023-02-12T20:13:29.223Z,15.90
2023-02-12T20:16:21.718Z,15.70
2023-02-12T20:19:00.104Z,15.40
2023-02-12T20:21:30.031Z,17.00
2023-02-12T20:24:06.063Z,14.60
2023-02-12T20:26:51.084Z,15.10
2023-02-12T20:29:25.615Z,14.10
2023-02-12T20:32:01.521Z,15.80
2023-02-12T20:34:32.929Z,15.70
2023-02-12T20:37:06.655Z,16.80
2023-02-12T20:39:37.139Z,15.20
2023-02-12T20:42:08.106Z,15.00
2023-02-12T20:44:37.505Z,15.90
2023-02-12T20:47:06.039Z,15.30
2023-02-12T20:49:35.752Z,17.90
2023-02-12T20:52:06.645Z,18.60
2023-02-12T20:54:35.214Z,17.10
2023-02-12T20:57:06.861Z,15.90
2023-02-12T20:59:35.380Z,18.30
2023-02-12T21:02:04.093Z,18.20
2023-02-12T21:04:32.944Z,18.80
2023-02-12T21:07:01.803Z,19.90
2023-02-12T21:09:30.415Z,20.10
2023-02-12T21:11:59.976Z,19.70
2023-02-12T21:14:29.922Z,18.10
2023-02-12T21:16:58.319Z,19.40
2023-02-12T21:19:35.028Z,18.50
2023-02-12T21:22:12.219Z,21.80
2023-02-12T21:24:41.424Z,19.10
2023-02-12T21:27:13.099Z,20.30
2023-02-12T21:29:41.518Z,20.50
2023-02-12T21:32:10.104Z,20.30
2023-02-12T21:34:39.674Z,19.90
2023-02-12T21:37:08.310Z,18.00
2023-02-12T21:39:37.644Z,19.90
2023-02-12T21:42:08.097Z,19.90
2023-02-12T21:44:37.029Z,19.10
2023-02-12T21:47:07.339Z,16.90
2023-02-12T21:49:35.879Z,16.50
2023-02-12T21:52:06.738Z,17.00
2023-02-12T21:54:35.659Z,16.50
2023-02-12T21:57:04.229Z,17.90
2023-02-12T21:59:32.750Z,15.60
2023-02-12T22:02:01.824Z,16.10
2023-02-12T22:04:34.157Z,16.10
2023-02-12T22:07:03.627Z,16.10
2023-02-12T22:09:32.644Z,14.30
2023-02-12T22:12:01.211Z,15.70
2023-02-12T22:14:29.858Z,17.20
2023-02-12T22:16:58.988Z,16.80
2023-02-12T22:19:27.505Z,19.10
2023-02-12T22:21:56.015Z,19.00
2023-02-12T22:24:24.466Z,23.00
2023-02-12T22:26:57.595Z,21.30
2023-02-12T22:29:26.416Z,21.50
2023-02-12T22:31:55.298Z,21.60
2023-02-12T22:34:24.026Z,22.50
2023-02-12T22:36:55.158Z,19.00
2023-02-12T22:39:23.850Z,18.40
2023-02-12T22:41:52.232Z,16.80
2023-02-12T22:44:49.027Z,18.10
2023-02-12T22:47:17.428Z,19.70
2023-02-12T22:49:45.886Z,16.80
2023-02-12T22:52:14.348Z,18.40
2023-02-12T22:54:42.771Z,18.80
2023-02-12T22:57:11.545Z,20.40
2023-02-12T22:59:39.871Z,18.00
2023-02-12T23:02:08.615Z,16.40
2023-02-12T23:04:37.128Z,16.60
2023-02-12T23:07:05.552Z,17.40
2023-02-12T23:09:33.983Z,17.50
2023-02-12T23:12:07.578Z,17.60
2023-02-12T23:14:36.212Z,17.60
2023-02-12T23:17:04.746Z,17.50
2023-02-12T23:19:33.172Z,17.90
2023-02-12T23:22:02.241Z,16.20
2023-02-12T23:24:31.075Z,16.90
2023-02-12T23:26:59.464Z,15.90
2023-02-12T23:29:29.948Z,16.20
2023-02-12T23:31:59.366Z,16.90
2023-02-12T23:34:32.271Z,16.90
2023-02-12T23:37:04.336Z,15.80
2023-02-12T23:39:33.437Z,15.10
2023-02-12T23:42:04.978Z,15.00
2023-02-12T23:44:33.560Z,15.20
2023-02-12T23:47:02.129Z,14.70
2023-02-12T23:49:30.452Z,15.60
2023-02-12T23:51:58.823Z,17.40
2023-02-12T23:54:27.121Z,16.20
2023-02-12T23:56:55.466Z,16.70
2023-02-12T23:59:26.756Z,17.20
